createdAt,value
2019-03-25T00:02:30.687Z,95277.66
2019-03-25T00:05:39.494Z,95272.61
2019-03-25T00:08:48.021Z,95274.28
2019-03-25T00:11:56.222Z,95274.44
2019-03-25T00:15:05.072Z,95271.96
2019-03-25T00:18:13.595Z,95266.41
2019-03-25T00:21:21.835Z,95267.89
2019-03-25T00:24:38.135Z,95259.41
2019-03-25T00:27:40.366Z,95255.64
2019-03-25T00:30:48.494Z,95253.13
2019-03-25T00:33:56.563Z,95254.41
2019-03-25T00:37:04.860Z,95248.48
2019-03-25T00:40:13.248Z,95251.09
2019-03-25T00:43:21.644Z,95246.56
2019-03-25T00:46:30.019Z,95245.59
2019-03-25T00:49:38.368Z,95248.23
2019-03-25T00:52:46.693Z,95241.18
2019-03-25T00:55:55.211Z,95238.23
2019-03-25T00:59:03.727Z,95226.84
2019-03-25T01:02:12.274Z,95228.80
2019-03-25T01:05:22.014Z,95222.33
2019-03-25T01:08:30.114Z,95229.72
2019-03-25T01:11:48.624Z,95228.89
2019-03-25T01:14:48.432Z,95231.34
2019-03-25T01:17:56.524Z,95218.56
2019-03-25T01:21:05.108Z,95216.45
2019-03-25T01:24:13.297Z,95209.34
2019-03-25T01:27:21.493Z,95212.05
2019-03-25T01:30:29.676Z,95202.79
2019-03-25T01:33:37.694Z,95194.46
2019-03-25T01:36:45.889Z,95197.88
2019-03-25T01:39:54.236Z,95195.48
2019-03-25T01:43:02.432Z,95198.61
2019-03-25T01:46:10.736Z,95196.50
2019-03-25T01:49:18.921Z,95202.28
2019-03-25T01:52:27.489Z,95196.87
2019-03-25T01:55:35.924Z,95194.49
2019-03-25T01:58:44.369Z,95185.69
2019-03-25T02:01:52.470Z,95183.48
2019-03-25T02:05:01.096Z,95180.84
2019-03-25T02:08:09.194Z,95184.96
2019-03-25T02:11:17.598Z,95178.68
2019-03-25T02:14:26.015Z,95177.66
2019-03-25T02:17:34.203Z,95176.09
2019-03-25T02:20:42.657Z,95171.14
2019-03-25T02:23:50.846Z,95167.56
2019-03-25T02:26:59.602Z,95168.70
2019-03-25T02:30:08.977Z,95171.20
2019-03-25T02:33:17.229Z,95163.52
2019-03-25T02:36:25.210Z,95163.84
2019-03-25T02:39:33.291Z,95157.36
2019-03-25T02:42:41.511Z,95159.41
2019-03-25T02:45:49.599Z,95161.33
2019-03-25T02:48:57.725Z,95159.70
2019-03-25T02:52:06.233Z,95155.74
2019-03-25T02:55:14.425Z,95151.52
2019-03-25T02:58:22.849Z,95160.95
2019-03-25T03:01:31.812Z,95155.56
2019-03-25T03:04:40.615Z,95154.98
2019-03-25T03:07:49.228Z,95154.78
2019-03-25T03:10:57.843Z,95145.84
2019-03-25T03:14:06.283Z,95143.29
2019-03-25T03:17:14.360Z,95150.81
2019-03-25T03:20:22.669Z,95151.39
2019-03-25T03:23:31.356Z,95147.78
2019-03-25T03:26:39.551Z,95139.39
2019-03-25T03:29:48.169Z,95135.65
2019-03-25T03:32:56.267Z,95139.41
2019-03-25T03:36:04.554Z,95127.45
2019-03-25T03:39:13.001Z,95135.92
2019-03-25T03:42:21.343Z,95121.89
2019-03-25T03:45:29.588Z,95125.81
2019-03-25T03:48:37.779Z,95126.69
2019-03-25T03:51:46.528Z,95124.20
2019-03-25T03:54:54.945Z,95127.48
2019-03-25T03:58:04.090Z,95128.95
2019-03-25T04:01:13.047Z,95127.36
2019-03-25T04:04:21.378Z,95128.28
2019-03-25T04:07:29.954Z,95130.52
2019-03-25T04:10:38.708Z,95131.06
2019-03-25T04:13:46.793Z,95135.22
2019-03-25T04:16:55.013Z,95140.55
2019-03-25T04:20:03.963Z,95141.34
2019-03-25T04:23:12.287Z,95143.00
2019-03-25T04:26:28.410Z,95143.54
2019-03-25T04:29:30.946Z,95139.52
2019-03-25T04:32:39.404Z,95135.12
2019-03-25T04:35:48.260Z,95135.75
2019-03-25T04:38:57.590Z,95145.59
2019-03-25T04:42:06.330Z,95142.02
2019-03-25T04:45:16.387Z,95141.72
2019-03-25T04:48:38.559Z,95138.20
2019-03-25T04:51:48.478Z,95131.16
2019-03-25T04:54:56.479Z,95122.30
2019-03-25T04:58:04.943Z,95131.61
2019-03-25T05:01:13.597Z,95133.98
2019-03-25T05:04:21.816Z,95136.23
2019-03-25T05:07:29.933Z,95133.05
2019-03-25T05:10:40.073Z,95123.51
2019-03-25T05:13:48.261Z,95128.97
2019-03-25T05:16:56.447Z,95124.13
2019-03-25T05:20:06.531Z,95130.53
2019-03-25T05:23:14.954Z,95123.40
2019-03-25T05:26:23.674Z,95126.61
2019-03-25T05:29:32.074Z,95125.06
2019-03-25T05:32:40.363Z,95119.70
2019-03-25T05:35:48.930Z,95122.43
2019-03-25T05:38:57.228Z,95129.25
2019-03-25T05:42:05.662Z,95119.59
2019-03-25T05:45:14.010Z,95125.47
2019-03-25T05:48:22.596Z,95128.62
2019-03-25T05:51:30.588Z,95135.75
2019-03-25T05:54:38.622Z,95137.31
2019-03-25T05:57:47.118Z,95141.26
2019-03-25T06:00:55.631Z,95141.75
2019-03-25T06:04:04.309Z,95153.79
2019-03-25T06:07:12.502Z,95156.94
2019-03-25T06:10:21.027Z,95148.05
2019-03-25T06:13:29.548Z,95147.86
2019-03-25T06:16:37.650Z,95148.95
2019-03-25T06:19:45.860Z,95152.20
2019-03-25T06:22:53.829Z,95157.77
2019-03-25T06:26:02.478Z,95157.95
2019-03-25T06:29:11.207Z,95155.55
2019-03-25T06:32:19.735Z,95152.91
2019-03-25T06:35:28.130Z,95155.97
2019-03-25T06:38:36.304Z,95156.97
2019-03-25T06:41:44.507Z,95159.80
2019-03-25T06:44:53.466Z,95155.73
2019-03-25T06:48:01.749Z,95155.48
2019-03-25T06:51:10.237Z,95156.98
2019-03-25T06:54:18.377Z,95154.72
2019-03-25T06:57:26.645Z,95161.13
2019-03-25T07:00:35.183Z,95162.22
2019-03-25T07:03:43.937Z,95162.38
2019-03-25T07:06:52.324Z,95148.81
2019-03-25T07:10:00.510Z,95162.99
2019-03-25T07:13:08.952Z,95157.34
2019-03-25T07:16:17.690Z,95165.13
2019-03-25T07:19:25.990Z,95164.01
2019-03-25T07:22:34.919Z,95163.67
2019-03-25T07:28:59.405Z,95163.72
2019-03-25T07:32:09.060Z,95161.48
2019-03-25T07:35:17.393Z,95160.20
2019-03-25T07:38:25.630Z,95156.25
2019-03-25T07:41:33.733Z,95163.04
2019-03-25T07:44:42.108Z,95154.75
2019-03-25T07:47:51.003Z,95155.34
2019-03-25T07:50:59.238Z,95165.36
2019-03-25T07:54:08.058Z,95154.97
2019-03-25T07:57:16.358Z,95149.45
2019-03-25T08:00:24.916Z,95157.20
2019-03-25T08:03:33.184Z,95162.75
2019-03-25T08:06:41.629Z,95153.91
2019-03-25T08:09:49.811Z,95151.97
2019-03-25T08:12:58.540Z,95153.97
2019-03-25T08:16:07.534Z,95156.73
2019-03-25T08:19:16.319Z,95164.17
2019-03-25T08:22:24.421Z,95158.53
2019-03-25T08:25:33.046Z,95163.70
2019-03-25T08:28:41.154Z,95168.53
2019-03-25T08:31:49.511Z,95161.69
2019-03-25T08:34:57.644Z,95164.30
2019-03-25T08:38:06.671Z,95162.97
2019-03-25T08:41:15.137Z,95165.80
2019-03-25T08:44:23.622Z,95162.02
2019-03-25T08:47:32.173Z,95157.40
2019-03-25T08:50:40.513Z,95162.98
2019-03-25T08:53:48.795Z,95161.01
2019-03-25T08:56:57.124Z,95166.45
2019-03-25T09:00:06.384Z,95166.64
2019-03-25T09:03:14.814Z,95161.55
2019-03-25T09:06:23.186Z,95163.44
2019-03-25T09:09:31.521Z,95163.72
2019-03-25T09:12:40.336Z,95162.19
2019-03-25T09:15:48.878Z,95157.20
2019-03-25T09:18:57.096Z,95155.05
2019-03-25T09:22:06.776Z,95145.17
2019-03-25T09:25:15.462Z,95165.55
2019-03-25T09:28:24.786Z,95162.86
2019-03-25T09:31:36.955Z,95166.81
2019-03-25T09:34:44.416Z,95143.36
2019-03-25T09:37:53.229Z,95164.67
2019-03-25T09:41:01.606Z,95151.11
2019-03-25T09:44:09.837Z,95156.06
2019-03-25T09:47:18.197Z,95149.27
2019-03-25T09:50:26.940Z,95149.42
2019-03-25T09:53:35.261Z,95157.11
2019-03-25T09:56:43.486Z,95161.84
2019-03-25T09:59:51.858Z,95149.41
2019-03-25T10:03:00.489Z,95140.66
2019-03-25T10:06:08.923Z,95144.52
2019-03-25T10:09:17.073Z,95151.89
2019-03-25T10:12:25.276Z,95152.05
2019-03-25T10:15:33.490Z,95158.08
2019-03-25T10:18:41.923Z,95147.27
2019-03-25T10:21:50.261Z,95162.36
2019-03-25T10:24:58.528Z,95155.86
2019-03-25T10:28:07.981Z,95178.08
2019-03-25T10:31:17.537Z,95168.25
2019-03-25T10:34:25.904Z,95163.11
2019-03-25T10:37:34.454Z,95166.41
2019-03-25T10:40:42.375Z,95171.19
2019-03-25T10:43:50.613Z,95162.86
2019-03-25T10:46:58.815Z,95164.59
2019-03-25T10:50:09.028Z,95160.86
2019-03-25T10:53:17.320Z,95136.77
2019-03-25T10:56:26.456Z,95136.36
2019-03-25T10:59:34.647Z,95132.15
2019-03-25T11:02:43.444Z,95130.16
2019-03-25T11:05:51.955Z,95119.55
2019-03-25T11:09:00.234Z,95118.60
2019-03-25T11:12:08.747Z,95115.98
2019-03-25T11:15:18.232Z,95119.75
2019-03-25T11:18:26.512Z,95109.14
2019-03-25T11:21:34.430Z,95123.12
2019-03-25T11:24:43.861Z,95133.34
2019-03-25T11:27:54.525Z,95144.56
2019-03-25T11:31:02.811Z,95130.86
2019-03-25T11:34:11.501Z,95142.00
2019-03-25T11:37:20.106Z,95135.20
2019-03-25T11:40:28.833Z,95126.37
2019-03-25T11:43:37.580Z,95119.16
2019-03-25T11:46:46.103Z,95118.16
2019-03-25T11:49:54.518Z,95111.67
2019-03-25T11:53:02.808Z,95116.59
2019-03-25T11:56:11.146Z,95106.70
2019-03-25T11:59:19.478Z,95106.47
2019-03-25T12:02:28.189Z,95102.97
2019-03-25T12:05:36.533Z,95102.91
2019-03-25T12:08:44.860Z,95085.92
2019-03-25T12:11:53.298Z,95098.25
2019-03-25T12:15:01.818Z,95099.81
2019-03-25T12:18:10.498Z,95092.33
2019-03-25T12:21:19.002Z,95102.81
2019-03-25T12:24:27.638Z,95092.48
2019-03-25T12:27:36.413Z,95102.28
2019-03-25T12:30:44.856Z,95111.91
2019-03-25T12:33:53.028Z,95101.61
2019-03-25T12:37:01.220Z,95094.19
2019-03-25T12:40:09.956Z,95075.23
2019-03-25T12:43:18.495Z,95091.25
2019-03-25T12:46:26.690Z,95094.70
2019-03-25T12:49:35.090Z,95085.72
2019-03-25T12:52:43.396Z,95085.90
2019-03-25T12:55:51.902Z,95081.05
2019-03-25T12:59:00.333Z,95074.38
2019-03-25T13:02:09.762Z,95061.50
2019-03-25T13:05:18.177Z,95052.11
2019-03-25T13:08:33.027Z,95059.22
2019-03-25T13:11:36.842Z,95055.38
2019-03-25T13:14:45.133Z,95057.32
2019-03-25T13:17:54.017Z,95073.17
2019-03-25T13:21:02.564Z,95077.61
2019-03-25T13:24:11.192Z,95073.64
2019-03-25T13:27:19.972Z,95073.67
2019-03-25T13:30:28.944Z,95072.08
2019-03-25T13:33:37.712Z,95090.41
2019-03-25T13:36:45.926Z,95102.09
2019-03-25T13:39:54.012Z,95102.57
2019-03-25T13:43:02.958Z,95110.37
2019-03-25T13:46:11.162Z,95104.54
2019-03-25T13:49:19.176Z,95101.48
2019-03-25T13:52:27.700Z,95118.66
2019-03-25T13:55:36.148Z,95121.22
2019-03-25T13:59:04.179Z,95121.66
2019-03-25T14:02:12.589Z,95117.15
2019-03-25T14:05:20.898Z,95111.11
2019-03-25T14:08:29.410Z,95118.67
2019-03-25T14:11:38.040Z,95111.97
2019-03-25T14:14:46.933Z,95122.12
2019-03-25T14:17:55.388Z,95116.86
2019-03-25T14:21:03.925Z,95118.38
2019-03-25T14:24:12.204Z,95131.14
2019-03-25T14:27:20.422Z,95129.09
2019-03-25T14:30:29.282Z,95115.94
2019-03-25T14:33:38.057Z,95140.64
2019-03-25T14:36:46.433Z,95156.67
2019-03-25T14:39:54.637Z,95167.84
2019-03-25T14:43:02.846Z,95157.78
2019-03-25T14:46:11.242Z,95168.89
2019-03-25T14:49:19.437Z,95170.57
2019-03-25T14:52:28.279Z,95164.88
2019-03-25T14:55:36.526Z,95160.44
2019-03-25T14:58:45.277Z,95163.61
2019-03-25T15:01:53.854Z,95164.55
2019-03-25T15:05:02.265Z,95172.72
2019-03-25T15:08:10.879Z,95159.86
2019-03-25T15:11:19.177Z,95191.91
2019-03-25T15:14:27.541Z,95229.25
2019-03-25T15:17:36.162Z,95245.16
2019-03-25T15:20:44.658Z,95257.47
2019-03-25T15:23:53.850Z,95249.73
2019-03-25T15:27:03.800Z,95245.55
2019-03-25T15:30:13.279Z,95231.91
2019-03-25T15:33:22.078Z,95240.94
2019-03-25T15:36:31.010Z,95243.70
2019-03-25T15:39:46.737Z,95245.09
2019-03-25T15:42:51.258Z,95227.20
2019-03-25T15:46:00.370Z,95233.88
2019-03-25T15:49:09.030Z,95232.81
2019-03-25T15:52:17.743Z,95229.69
2019-03-25T15:55:26.706Z,95232.94
2019-03-25T15:58:35.299Z,95234.33
2019-03-25T16:01:43.945Z,95231.48
2019-03-25T16:04:52.546Z,95235.97
2019-03-25T16:08:01.279Z,95230.63
2019-03-25T16:11:09.902Z,95234.77
2019-03-25T16:14:18.507Z,95234.03
2019-03-25T16:17:26.706Z,95243.79
2019-03-25T16:20:35.059Z,95245.22
2019-03-25T16:23:43.528Z,95245.31
2019-03-25T16:26:52.432Z,95245.65
2019-03-25T16:30:00.914Z,95250.99
2019-03-25T16:33:09.214Z,95250.19
2019-03-25T16:36:17.514Z,95259.22
2019-03-25T16:39:26.594Z,95256.40
2019-03-25T16:42:40.143Z,95263.27
2019-03-25T16:45:52.415Z,95270.94
2019-03-25T16:49:04.293Z,95296.70
2019-03-25T16:52:13.061Z,95305.55
2019-03-25T16:55:21.882Z,95335.87
2019-03-25T16:58:30.194Z,95336.13
2019-03-25T17:01:39.118Z,95347.48
2019-03-25T17:04:47.352Z,95351.06
2019-03-25T17:07:56.057Z,95341.45
2019-03-25T17:11:05.489Z,95329.91
2019-03-25T17:14:16.498Z,95328.13
2019-03-25T17:17:24.958Z,95314.73
2019-03-25T17:20:33.572Z,95310.03
2019-03-25T17:23:42.360Z,95307.17
2019-03-25T17:26:50.855Z,95308.38
2019-03-25T17:30:00.524Z,95326.20
2019-03-25T17:33:12.105Z,95337.72
2019-03-25T17:36:23.830Z,95337.73
2019-03-25T17:39:32.630Z,95334.08
2019-03-25T17:42:42.891Z,95331.78
2019-03-25T17:45:51.735Z,95332.02
2019-03-25T17:49:00.392Z,95341.69
2019-03-25T17:52:10.489Z,95348.30
2019-03-25T17:55:19.288Z,95357.17
2019-03-25T17:58:28.840Z,95361.37
2019-03-25T18:01:38.385Z,95372.30
2019-03-25T18:04:47.527Z,95368.98
2019-03-25T18:07:56.472Z,95369.25
2019-03-25T18:11:05.154Z,95373.38
2019-03-25T18:14:14.578Z,95379.93
2019-03-25T18:17:24.345Z,95382.85
2019-03-25T18:20:32.965Z,95384.69
2019-03-25T18:23:43.002Z,95379.47
2019-03-25T18:26:52.567Z,95387.53
2019-03-25T18:30:01.128Z,95389.63
2019-03-25T18:33:09.419Z,95385.98
2019-03-25T18:36:17.786Z,95388.63
2019-03-25T18:39:26.585Z,95394.64
2019-03-25T18:42:35.221Z,95402.53
2019-03-25T18:45:43.603Z,95410.59
2019-03-25T18:48:51.950Z,95418.94
2019-03-25T18:52:00.344Z,95433.63
2019-03-25T18:55:08.931Z,95436.25
2019-03-25T18:58:17.229Z,95451.68
2019-03-25T19:01:26.036Z,95473.02
2019-03-25T19:04:34.563Z,95471.45
2019-03-25T19:07:45.557Z,95493.61
2019-03-25T19:10:53.744Z,95465.03
2019-03-25T19:14:01.980Z,95471.55
2019-03-25T19:17:10.171Z,95481.27
2019-03-25T19:20:18.352Z,95476.85
2019-03-25T19:23:26.578Z,95490.70
2019-03-25T19:26:34.777Z,95483.89
2019-03-25T19:29:43.194Z,95493.86
2019-03-25T19:32:51.414Z,95494.67
2019-03-25T19:36:00.125Z,95494.39
2019-03-25T19:39:08.767Z,95491.03
2019-03-25T19:42:16.966Z,95501.25
2019-03-25T19:45:25.328Z,95500.20
2019-03-25T19:48:33.860Z,95498.38
2019-03-25T19:51:42.349Z,95504.42
2019-03-25T19:54:52.695Z,95513.05
2019-03-25T19:58:02.851Z,95512.81
2019-03-25T20:01:12.127Z,95508.09
2019-03-25T20:04:21.125Z,95515.19
2019-03-25T20:07:30.821Z,95515.45
2019-03-25T20:10:39.982Z,95525.65
2019-03-25T20:13:48.058Z,95526.44
2019-03-25T20:16:56.702Z,95531.97
2019-03-25T20:20:07.391Z,95535.11
2019-03-25T20:23:16.445Z,95535.36
2019-03-25T20:26:26.529Z,95536.67
2019-03-25T20:29:34.948Z,95541.16
2019-03-25T20:32:44.087Z,95542.73
2019-03-25T20:35:52.236Z,95541.14
2019-03-25T20:39:00.999Z,95535.89
2019-03-25T20:42:09.567Z,95536.41
2019-03-25T20:45:18.473Z,95534.84
2019-03-25T20:48:27.966Z,95529.34
2019-03-25T20:51:36.420Z,95527.48
2019-03-25T20:54:45.694Z,95520.14
2019-03-25T20:57:54.457Z,95518.58
2019-03-25T21:01:02.833Z,95514.64
2019-03-25T21:04:11.142Z,95515.92
2019-03-25T21:07:19.917Z,95521.10
2019-03-25T21:10:28.268Z,95528.34
2019-03-25T21:13:37.334Z,95533.75
2019-03-25T21:16:46.251Z,95547.58
2019-03-25T21:19:55.327Z,95556.05
2019-03-25T21:23:03.605Z,95561.34
2019-03-25T21:26:11.991Z,95564.79
2019-03-25T21:29:20.520Z,95568.22
2019-03-25T21:32:28.847Z,95570.30
2019-03-25T21:35:37.233Z,95574.02
2019-03-25T21:38:45.865Z,95572.44
2019-03-25T21:41:54.684Z,95572.97
2019-03-25T21:45:03.647Z,95561.55
2019-03-25T21:48:12.788Z,95560.26
2019-03-25T21:51:21.191Z,95556.06
2019-03-25T21:54:29.387Z,95559.42
2019-03-25T21:57:38.065Z,95552.63
2019-03-25T22:00:46.385Z,95548.45
2019-03-25T22:03:54.463Z,95552.38
2019-03-25T22:07:02.642Z,95551.61
2019-03-25T22:10:11.431Z,95548.45
2019-03-25T22:13:20.004Z,95548.43
2019-03-25T22:16:28.459Z,95542.67
2019-03-25T22:19:37.077Z,95547.63
2019-03-25T22:22:45.411Z,95549.44
2019-03-25T22:25:53.697Z,95559.17
2019-03-25T22:29:02.012Z,95557.11
2019-03-25T22:32:10.439Z,95559.69
2019-03-25T22:35:19.061Z,95556.30
2019-03-25T22:38:27.717Z,95564.41
2019-03-25T22:41:36.412Z,95563.61
2019-03-25T22:44:45.041Z,95570.19
2019-03-25T22:47:53.754Z,95584.56
2019-03-25T22:51:02.624Z,95594.28
2019-03-25T22:54:11.002Z,95593.73
2019-03-25T22:57:19.522Z,95597.40
2019-03-25T23:00:38.411Z,95600.09
2019-03-25T23:03:46.686Z,95600.55
2019-03-25T23:06:54.925Z,95606.56
2019-03-25T23:10:04.172Z,95617.86
2019-03-25T23:13:12.669Z,95621.55
2019-03-25T23:16:20.882Z,95622.30
2019-03-25T23:19:28.980Z,95623.89
2019-03-25T23:22:37.510Z,95629.11
2019-03-25T23:25:45.757Z,95637.81
2019-03-25T23:28:53.957Z,95648.27
2019-03-25T23:32:02.361Z,95649.36
2019-03-25T23:35:10.727Z,95662.19
2019-03-25T23:38:18.927Z,95665.30
2019-03-25T23:41:27.034Z,95667.44
2019-03-25T23:44:35.313Z,95667.37
2019-03-25T23:47:43.426Z,95664.31
2019-03-25T23:50:51.625Z,95666.14
2019-03-25T23:54:13.700Z,95664.53
2019-03-25T23:57:21.826Z,95662.20
